sensor_id;sensor_type;location;lat;lon;timestamp;temperature;humidity
26107;DHT22;13866;50.748;12.630;2023-02-15T00:00:18;-0.80;99.90
26107;DHT22;13866;50.748;12.630;2023-02-15T00:02:43;-0.80;99.90
26107;DHT22;13866;50.748;12.630;2023-02-15T00:05:09;-0.80;99.90
26107;DHT22;13866;50.748;12.630;2023-02-15T00:07:35;-0.80;99.90
26107;DHT22;13866;50.748;12.630;2023-02-15T00:10:00;-0.80;99.90
26107;DHT22;13866;50.748;12.630;2023-02-15T00:12:26;-0.80;99.90
26107;DHT22;13866;50.748;12.630;2023-02-15T00:14:51;-0.80;99.90
26107;DHT22;13866;50.748;12.630;2023-02-15T00:17:17;-0.90;99.90
26107;DHT22;13866;50.748;12.630;2023-02-15T00:19:42;-0.90;99.90
26107;DHT22;13866;50.748;12.630;2023-02-15T00:22:08;-0.90;99.90
26107;DHT22;13866;50.748;12.630;2023-02-15T00:24:33;-0.90;99.90
26107;DHT22;13866;50.748;12.630;2023-02-15T00:26:59;-0.90;99.90
26107;DHT22;13866;50.748;12.630;2023-02-15T00:29:24;-1.00;99.90
26107;DHT22;13866;50.748;12.630;2023-02-15T00:31:50;-1.00;99.90
26107;DHT22;13866;50.748;12.630;2023-02-15T00:34:19;-1.00;99.90
26107;DHT22;13866;50.748;12.630;2023-02-15T00:36:46;-1.00;99.90
26107;DHT22;13866;50.748;12.630;2023-02-15T00:39:12;-1.00;99.90
26107;DHT22;13866;50.748;12.630;2023-02-15T00:41:38;-1.00;99.90
26107;DHT22;13866;50.748;12.630;2023-02-15T00:44:04;-1.10;99.90
26107;DHT22;13866;50.748;12.630;2023-02-15T00:46:30;-1.10;99.90
26107;DHT22;13866;50.748;12.630;2023-02-15T00:48:55;-1.10;99.90
26107;DHT22;13866;50.748;12.630;2023-02-15T00:51:21;-1.10;99.90
26107;DHT22;13866;50.748;12.630;2023-02-15T00:53:46;-1.10;99.90
26107;DHT22;13866;50.748;12.630;2023-02-15T00:56:12;-0.90;99.90
26107;DHT22;13866;50.748;12.630;2023-02-15T00:58:38;-1.00;99.90
26107;DHT22;13866;50.748;12.630;2023-02-15T01:01:09;-1.10;99.90
26107;DHT22;13866;50.748;12.630;2023-02-15T01:03:35;-1.20;99.90
26107;DHT22;13866;50.748;12.630;2023-02-15T01:06:02;-1.20;99.90
26107;DHT22;13866;50.748;12.630;2023-02-15T01:08:28;-1.10;99.90
26107;DHT22;13866;50.748;12.630;2023-02-15T01:10:54;-1.20;99.90
26107;DHT22;13866;50.748;12.630;2023-02-15T01:13:20;-1.20;99.90
26107;DHT22;13866;50.748;12.630;2023-02-15T01:15:45;-1.30;99.90
26107;DHT22;13866;50.748;12.630;2023-02-15T01:18:11;-1.30;99.90
26107;DHT22;13866;50.748;12.630;2023-02-15T01:20:39;-1.30;99.90
26107;DHT22;13866;50.748;12.630;2023-02-15T01:23:07;-1.30;99.90
26107;DHT22;13866;50.748;12.630;2023-02-15T01:25:33;-1.30;99.90
26107;DHT22;13866;50.748;12.630;2023-02-15T01:28:00;-1.30;99.90
26107;DHT22;13866;50.748;12.630;2023-02-15T01:30:25;-1.20;99.90
26107;DHT22;13866;50.748;12.630;2023-02-15T01:32:51;-1.20;99.90
26107;DHT22;13866;50.748;12.630;2023-02-15T01:35:16;-1.20;99.90
26107;DHT22;13866;50.748;12.630;2023-02-15T01:37:42;-1.30;99.90
26107;DHT22;13866;50.748;12.630;2023-02-15T01:40:12;-1.40;99.90
26107;DHT22;13866;50.748;12.630;2023-02-15T01:42:38;-1.40;99.90
26107;DHT22;13866;50.748;12.630;2023-02-15T01:45:27;-1.40;99.90
26107;DHT22;13866;50.748;12.630;2023-02-15T01:48:04;-1.40;99.90
26107;DHT22;13866;50.748;12.630;2023-02-15T01:53:13;-1.60;99.90
26107;DHT22;13866;50.748;12.630;2023-02-15T01:55:47;-1.60;99.90
26107;DHT22;13866;50.748;12.630;2023-02-15T01:58:13;-1.50;99.90
26107;DHT22;13866;50.748;12.630;2023-02-15T02:00:39;-1.60;99.90
26107;DHT22;13866;50.748;12.630;2023-02-15T02:03:05;-1.60;99.90
26107;DHT22;13866;50.748;12.630;2023-02-15T02:05:31;-1.60;99.90
26107;DHT22;13866;50.748;12.630;2023-02-15T02:07:59;-1.60;99.90
26107;DHT22;13866;50.748;12.630;2023-02-15T02:10:26;-1.60;99.90
26107;DHT22;13866;50.748;12.630;2023-02-15T02:12:55;-1.60;99.90
26107;DHT22;13866;50.748;12.630;2023-02-15T02:15:32;-1.60;99.90
26107;DHT22;13866;50.748;12.630;2023-02-15T02:21:12;-1.60;99.90
26107;DHT22;13866;50.748;12.630;2023-02-15T02:29:47;-1.50;99.90
26107;DHT22;13866;50.748;12.630;2023-02-15T02:38:03;-1.50;99.90
26107;DHT22;13866;50.748;12.630;2023-02-15T02:40:39;-1.50;99.90
26107;DHT22;13866;50.748;12.630;2023-02-15T02:44:07;-1.50;99.90
26107;DHT22;13866;50.748;12.630;2023-02-15T02:46:13;-1.50;99.90
26107;DHT22;13866;50.748;12.630;2023-02-15T02:48:43;-1.60;99.90
26107;DHT22;13866;50.748;12.630;2023-02-15T02:51:09;-1.70;99.90
26107;DHT22;13866;50.748;12.630;2023-02-15T02:53:34;-1.70;99.90
26107;DHT22;13866;50.748;12.630;2023-02-15T02:56:10;-1.70;99.90
26107;DHT22;13866;50.748;12.630;2023-02-15T02:58:46;-1.70;99.90
26107;DHT22;13866;50.748;12.630;2023-02-15T03:01:27;-1.80;99.90
26107;DHT22;13866;50.748;12.630;2023-02-15T03:04:00;-1.80;99.90
26107;DHT22;13866;50.748;12.630;2023-02-15T03:06:50;-1.90;99.90
26107;DHT22;13866;50.748;12.630;2023-02-15T03:09:26;-1.90;99.90
26107;DHT22;13866;50.748;12.630;2023-02-15T03:12:00;-1.90;99.90
26107;DHT22;13866;50.748;12.630;2023-02-15T03:14:27;-2.00;99.90
26107;DHT22;13866;50.748;12.630;2023-02-15T03:16:53;-2.00;99.90
26107;DHT22;13866;50.748;12.630;2023-02-15T03:19:27;-2.00;99.90
26107;DHT22;13866;50.748;12.630;2023-02-15T03:22:18;-2.00;99.90
26107;DHT22;13866;50.748;12.630;2023-02-15T03:24:59;-1.90;99.90
26107;DHT22;13866;50.748;12.630;2023-02-15T03:27:32;-1.90;99.90
26107;DHT22;13866;50.748;12.630;2023-02-15T03:29:59;-2.00;99.90
26107;DHT22;13866;50.748;12.630;2023-02-15T03:32:28;-1.90;99.90
26107;DHT22;13866;50.748;12.630;2023-02-15T03:34:55;-1.90;99.90
26107;DHT22;13866;50.748;12.630;2023-02-15T03:37:35;-1.90;99.90
26107;DHT22;13866;50.748;12.630;2023-02-15T03:40:18;-1.90;99.90
26107;DHT22;13866;50.748;12.630;2023-02-15T03:43:12;-2.00;99.90
26107;DHT22;13866;50.748;12.630;2023-02-15T03:45:47;-2.20;99.90
26107;DHT22;13866;50.748;12.630;2023-02-15T03:48:25;-2.20;99.90
26107;DHT22;13866;50.748;12.630;2023-02-15T03:50:57;-2.20;99.90
26107;DHT22;13866;50.748;12.630;2023-02-15T03:53:42;-2.20;99.90
26107;DHT22;13866;50.748;12.630;2023-02-15T03:56:08;-2.10;99.90
26107;DHT22;13866;50.748;12.630;2023-02-15T03:58:33;-2.10;99.90
26107;DHT22;13866;50.748;12.630;2023-02-15T04:01:39;-2.10;99.90
26107;DHT22;13866;50.748;12.630;2023-02-15T04:04:36;-2.10;99.90
26107;DHT22;13866;50.748;12.630;2023-02-15T04:07:04;-2.00;99.90
26107;DHT22;13866;50.748;12.630;2023-02-15T04:09:30;-2.10;99.90
26107;DHT22;13866;50.748;12.630;2023-02-15T04:12:14;-2.10;99.90
26107;DHT22;13866;50.748;12.630;2023-02-15T04:14:39;-2.10;99.90
26107;DHT22;13866;50.748;12.630;2023-02-15T04:17:23;-2.20;99.90
26107;DHT22;13866;50.748;12.630;2023-02-15T04:19:49;-2.20;99.90
26107;DHT22;13866;50.748;12.630;2023-02-15T04:22:33;-2.20;99.90
26107;DHT22;13866;50.748;12.630;2023-02-15T04:25:17;-2.20;99.90
26107;DHT22;13866;50.748;12.630;2023-02-15T04:27:45;-2.20;99.90
26107;DHT22;13866;50.748;12.630;2023-02-15T04:30:13;-2.20;99.90
26107;DHT22;13866;50.748;12.630;2023-02-15T04:32:39;-2.20;99.90
26107;DHT22;13866;50.748;12.630;2023-02-15T04:35:05;-2.30;99.90
26107;DHT22;13866;50.748;12.630;2023-02-15T04:37:31;-2.30;99.90
26107;DHT22;13866;50.748;12.630;2023-02-15T04:39:57;-2.40;99.90
26107;DHT22;13866;50.748;12.630;2023-02-15T04:42:24;-2.40;99.90
26107;DHT22;13866;50.748;12.630;2023-02-15T04:44:50;-2.40;99.90
26107;DHT22;13866;50.748;12.630;2023-02-15T04:47:16;-2.40;99.90
26107;DHT22;13866;50.748;12.630;2023-02-15T04:49:41;-2.50;99.90
26107;DHT22;13866;50.748;12.630;2023-02-15T04:52:07;-2.40;99.90
26107;DHT22;13866;50.748;12.630;2023-02-15T04:54:32;-2.40;99.90
26107;DHT22;13866;50.748;12.630;2023-02-15T04:56:58;-2.50;99.90
26107;DHT22;13866;50.748;12.630;2023-02-15T04:59:23;-2.50;99.90
26107;DHT22;13866;50.748;12.630;2023-02-15T05:01:49;-2.50;99.90
26107;DHT22;13866;50.748;12.630;2023-02-15T05:04:14;-2.50;99.90
26107;DHT22;13866;50.748;12.630;2023-02-15T05:06:40;-2.50;99.90
26107;DHT22;13866;50.748;12.630;2023-02-15T05:09:05;-2.40;99.90
26107;DHT22;13866;50.748;12.630;2023-02-15T05:11:31;-2.40;99.90
26107;DHT22;13866;50.748;12.630;2023-02-15T05:13:56;-2.50;99.90
26107;DHT22;13866;50.748;12.630;2023-02-15T05:16:22;-2.50;99.90
26107;DHT22;13866;50.748;12.630;2023-02-15T05:18:47;-2.60;99.90
26107;DHT22;13866;50.748;12.630;2023-02-15T05:21:13;-2.70;99.90
26107;DHT22;13866;50.748;12.630;2023-02-15T05:23:38;-2.70;99.90
26107;DHT22;13866;50.748;12.630;2023-02-15T05:26:04;-2.70;99.90
26107;DHT22;13866;50.748;12.630;2023-02-15T05:28:48;-2.70;99.90
26107;DHT22;13866;50.748;12.630;2023-02-15T05:31:16;-2.80;99.90
26107;DHT22;13866;50.748;12.630;2023-02-15T05:33:42;-2.80;99.90
26107;DHT22;13866;50.748;12.630;2023-02-15T05:36:08;-2.80;99.90
26107;DHT22;13866;50.748;12.630;2023-02-15T05:38:34;-2.80;99.90
26107;DHT22;13866;50.748;12.630;2023-02-15T05:40:59;-2.80;99.90
26107;DHT22;13866;50.748;12.630;2023-02-15T05:43:25;-2.80;99.90
26107;DHT22;13866;50.748;12.630;2023-02-15T05:45:53;-2.80;99.90
26107;DHT22;13866;50.748;12.630;2023-02-15T05:48:20;-2.80;99.90
26107;DHT22;13866;50.748;12.630;2023-02-15T05:50:45;-2.80;99.90
26107;DHT22;13866;50.748;12.630;2023-02-15T05:53:11;-2.90;99.90
26107;DHT22;13866;50.748;12.630;2023-02-15T05:55:38;-2.90;99.90
26107;DHT22;13866;50.748;12.630;2023-02-15T05:58:04;-2.90;99.90
26107;DHT22;13866;50.748;12.630;2023-02-15T06:00:30;-2.90;99.90
26107;DHT22;13866;50.748;12.630;2023-02-15T06:02:55;-2.90;99.90
26107;DHT22;13866;50.748;12.630;2023-02-15T06:05:21;-3.00;99.90
26107;DHT22;13866;50.748;12.630;2023-02-15T06:07:46;-3.00;99.90
26107;DHT22;13866;50.748;12.630;2023-02-15T06:10:12;-2.90;99.90
26107;DHT22;13866;50.748;12.630;2023-02-15T06:12:37;-3.00;99.90
26107;DHT22;13866;50.748;12.630;2023-02-15T06:15:03;-3.00;99.90
26107;DHT22;13866;50.748;12.630;2023-02-15T06:17:29;-3.00;99.90
26107;DHT22;13866;50.748;12.630;2023-02-15T06:19:54;-2.90;99.90
26107;DHT22;13866;50.748;12.630;2023-02-15T06:22:20;-2.90;99.90
26107;DHT22;13866;50.748;12.630;2023-02-15T06:24:46;-2.90;99.90
26107;DHT22;13866;50.748;12.630;2023-02-15T06:27:11;-3.00;99.90
26107;DHT22;13866;50.748;12.630;2023-02-15T06:29:37;-3.00;99.90
26107;DHT22;13866;50.748;12.630;2023-02-15T06:32:03;-3.00;99.90
26107;DHT22;13866;50.748;12.630;2023-02-15T06:34:28;-3.00;99.90
26107;DHT22;13866;50.748;12.630;2023-02-15T06:36:54;-3.00;99.90
26107;DHT22;13866;50.748;12.630;2023-02-15T06:39:19;-3.00;99.90
26107;DHT22;13866;50.748;12.630;2023-02-15T06:41:45;-3.00;99.90
26107;DHT22;13866;50.748;12.630;2023-02-15T06:44:10;-2.90;99.90
26107;DHT22;13866;50.748;12.630;2023-02-15T06:46:36;-2.90;99.90
26107;DHT22;13866;50.748;12.630;2023-02-15T06:49:01;-2.80;99.90
26107;DHT22;13866;50.748;12.630;2023-02-15T06:51:27;-2.80;99.90
26107;DHT22;13866;50.748;12.630;2023-02-15T06:53:52;-2.80;99.90
26107;DHT22;13866;50.748;12.630;2023-02-15T06:56:18;-2.70;99.90
26107;DHT22;13866;50.748;12.630;2023-02-15T06:58:43;-2.60;99.90
26107;DHT22;13866;50.748;12.630;2023-02-15T07:01:11;-2.50;99.90
26107;DHT22;13866;50.748;12.630;2023-02-15T07:03:37;-2.40;99.90
26107;DHT22;13866;50.748;12.630;2023-02-15T07:06:04;-2.40;99.90
26107;DHT22;13866;50.748;12.630;2023-02-15T07:08:33;-2.30;99.90
26107;DHT22;13866;50.748;12.630;2023-02-15T07:10:59;-2.30;99.90
26107;DHT22;13866;50.748;12.630;2023-02-15T07:13:45;-2.20;99.90
26107;DHT22;13866;50.748;12.630;2023-02-15T07:16:11;-2.10;99.90
26107;DHT22;13866;50.748;12.630;2023-02-15T07:18:37;-2.10;99.90
26107;DHT22;13866;50.748;12.630;2023-02-15T07:21:03;-2.20;99.90
26107;DHT22;13866;50.748;12.630;2023-02-15T07:23:29;-2.10;99.90
26107;DHT22;13866;50.748;12.630;2023-02-15T07:25:58;-2.00;99.90
26107;DHT22;13866;50.748;12.630;2023-02-15T07:28:24;-2.00;99.90
26107;DHT22;13866;50.748;12.630;2023-02-15T07:30:49;-1.90;99.90
26107;DHT22;13866;50.748;12.630;2023-02-15T07:33:15;-1.90;99.90
26107;DHT22;13866;50.748;12.630;2023-02-15T07:36:00;-1.90;99.90
26107;DHT22;13866;50.748;12.630;2023-02-15T07:38:30;-1.80;99.90
26107;DHT22;13866;50.748;12.630;2023-02-15T07:40:59;-1.80;99.90
26107;DHT22;13866;50.748;12.630;2023-02-15T07:43:26;-1.70;99.90
26107;DHT22;13866;50.748;12.630;2023-02-15T07:45:51;-1.70;99.90
26107;DHT22;13866;50.748;12.630;2023-02-15T07:48:17;-1.60;99.90
26107;DHT22;13866;50.748;12.630;2023-02-15T07:50:42;-1.50;99.90
26107;DHT22;13866;50.748;12.630;2023-02-15T07:53:08;-1.40;99.90
26107;DHT22;13866;50.748;12.630;2023-02-15T07:55:33;-1.40;99.90
26107;DHT22;13866;50.748;12.630;2023-02-15T07:57:59;-1.30;99.90
26107;DHT22;13866;50.748;12.630;2023-02-15T08:00:24;-1.30;99.90
26107;DHT22;13866;50.748;12.630;2023-02-15T08:02:55;-1.30;99.90
26107;DHT22;13866;50.748;12.630;2023-02-15T08:05:43;-1.30;99.90
26107;DHT22;13866;50.748;12.630;2023-02-15T08:08:10;-1.20;99.90
26107;DHT22;13866;50.748;12.630;2023-02-15T08:16:32;-0.90;99.90
26107;DHT22;13866;50.748;12.630;2023-02-15T08:19:00;-0.70;99.90
26107;DHT22;13866;50.748;12.630;2023-02-15T08:21:27;-0.50;99.90
26107;DHT22;13866;50.748;12.630;2023-02-15T08:23:53;-0.30;99.90
26107;DHT22;13866;50.748;12.630;2023-02-15T08:26:19;-0.20;99.90
26107;DHT22;13866;50.748;12.630;2023-02-15T08:28:45;0.10;99.90
26107;DHT22;13866;50.748;12.630;2023-02-15T08:31:13;0.30;99.90
26107;DHT22;13866;50.748;12.630;2023-02-15T08:33:41;0.50;99.90
26107;DHT22;13866;50.748;12.630;2023-02-15T08:36:15;0.70;99.90
26107;DHT22;13866;50.748;12.630;2023-02-15T08:38:41;0.90;99.90
26107;DHT22;13866;50.748;12.630;2023-02-15T08:43:37;1.60;99.90
26107;DHT22;13866;50.748;12.630;2023-02-15T08:46:03;1.90;99.90
26107;DHT22;13866;50.748;12.630;2023-02-15T08:48:29;2.10;99.90
26107;DHT22;13866;50.748;12.630;2023-02-15T08:50:54;2.20;99.90
26107;DHT22;13866;50.748;12.630;2023-02-15T08:53:20;2.30;99.90
26107;DHT22;13866;50.748;12.630;2023-02-15T08:55:47;2.40;99.90
26107;DHT22;13866;50.748;12.630;2023-02-15T08:58:13;2.60;99.90
26107;DHT22;13866;50.748;12.630;2023-02-15T09:00:38;2.80;99.90
26107;DHT22;13866;50.748;12.630;2023-02-15T09:03:03;3.10;99.90
26107;DHT22;13866;50.748;12.630;2023-02-15T09:05:29;3.30;99.90
26107;DHT22;13866;50.748;12.630;2023-02-15T09:07:54;3.40;99.90
26107;DHT22;13866;50.748;12.630;2023-02-15T09:10:20;3.60;99.90
26107;DHT22;13866;50.748;12.630;2023-02-15T09:12:45;3.90;99.90
26107;DHT22;13866;50.748;12.630;2023-02-15T09:15:11;4.20;99.90
26107;DHT22;13866;50.748;12.630;2023-02-15T09:17:36;4.40;99.90
26107;DHT22;13866;50.748;12.630;2023-02-15T09:20:02;4.70;99.90
26107;DHT22;13866;50.748;12.630;2023-02-15T09:22:28;5.00;99.90
26107;DHT22;13866;50.748;12.630;2023-02-15T09:24:55;5.30;99.90
26107;DHT22;13866;50.748;12.630;2023-02-15T09:27:20;5.70;99.90
26107;DHT22;13866;50.748;12.630;2023-02-15T09:29:46;5.90;99.90
26107;DHT22;13866;50.748;12.630;2023-02-15T09:32:13;6.20;99.90
26107;DHT22;13866;50.748;12.630;2023-02-15T09:34:40;6.40;99.90
26107;DHT22;13866;50.748;12.630;2023-02-15T09:37:05;6.70;99.90
26107;DHT22;13866;50.748;12.630;2023-02-15T09:39:31;7.10;99.90
26107;DHT22;13866;50.748;12.630;2023-02-15T09:42:26;7.60;99.90
26107;DHT22;13866;50.748;12.630;2023-02-15T09:45:07;8.00;99.90
26107;DHT22;13866;50.748;12.630;2023-02-15T09:53:36;9.30;99.90
26107;DHT22;13866;50.748;12.630;2023-02-15T09:56:14;9.20;99.90
26107;DHT22;13866;50.748;12.630;2023-02-15T10:02:11;9.20;99.90
26107;DHT22;13866;50.748;12.630;2023-02-15T10:07:37;9.60;99.90
26107;DHT22;13866;50.748;12.630;2023-02-15T10:12:59;9.80;99.90
26107;DHT22;13866;50.748;12.630;2023-02-15T10:15:50;10.00;99.90
26107;DHT22;13866;50.748;12.630;2023-02-15T10:18:38;10.20;99.90
26107;DHT22;13866;50.748;12.630;2023-02-15T10:26:46;10.20;99.90
26107;DHT22;13866;50.748;12.630;2023-02-15T10:29:15;10.50;99.90
26107;DHT22;13866;50.748;12.630;2023-02-15T10:31:51;10.70;99.90
26107;DHT22;13866;50.748;12.630;2023-02-15T10:34:40;10.70;99.90
26107;DHT22;13866;50.748;12.630;2023-02-15T10:39:46;10.90;99.90
26107;DHT22;13866;50.748;12.630;2023-02-15T10:48:22;11.00;99.90
26107;DHT22;13866;50.748;12.630;2023-02-15T10:50:49;11.10;99.90
26107;DHT22;13866;50.748;12.630;2023-02-15T10:56:21;11.30;99.90
26107;DHT22;13866;50.748;12.630;2023-02-15T10:59:07;11.20;99.90
26107;DHT22;13866;50.748;12.630;2023-02-15T11:01:48;11.20;99.90
26107;DHT22;13866;50.748;12.630;2023-02-15T11:07:38;10.90;99.90
26107;DHT22;13866;50.748;12.630;2023-02-15T11:12:41;11.10;99.90
26107;DHT22;13866;50.748;12.630;2023-02-15T11:15:26;11.00;99.90
26107;DHT22;13866;50.748;12.630;2023-02-15T11:20:55;11.00;99.90
26107;DHT22;13866;50.748;12.630;2023-02-15T11:23:21;11.10;99.90
26107;DHT22;13866;50.748;12.630;2023-02-15T11:25:58;11.20;99.90
26107;DHT22;13866;50.748;12.630;2023-02-15T11:28:34;11.40;99.90
26107;DHT22;13866;50.748;12.630;2023-02-15T11:31:18;11.60;99.90
26107;DHT22;13866;50.748;12.630;2023-02-15T11:33:48;11.50;99.90
26107;DHT22;13866;50.748;12.630;2023-02-15T11:36:37;11.40;99.90
26107;DHT22;13866;50.748;12.630;2023-02-15T11:39:12;11.50;99.90
26107;DHT22;13866;50.748;12.630;2023-02-15T11:41:44;11.50;99.90
26107;DHT22;13866;50.748;12.630;2023-02-15T11:44:20;11.50;99.90
26107;DHT22;13866;50.748;12.630;2023-02-15T11:46:46;11.50;99.90
26107;DHT22;13866;50.748;12.630;2023-02-15T11:51:48;11.70;99.90
26107;DHT22;13866;50.748;12.630;2023-02-15T11:54:17;12.00;99.90
26107;DHT22;13866;50.748;12.630;2023-02-15T11:56:43;12.00;99.90
26107;DHT22;13866;50.748;12.630;2023-02-15T11:59:18;12.00;99.90
26107;DHT22;13866;50.748;12.630;2023-02-15T12:01:46;12.00;99.90
26107;DHT22;13866;50.748;12.630;2023-02-15T12:04:26;12.00;99.90
26107;DHT22;13866;50.748;12.630;2023-02-15T12:10:02;12.00;99.90
26107;DHT22;13866;50.748;12.630;2023-02-15T12:12:37;12.10;99.90
26107;DHT22;13866;50.748;12.630;2023-02-15T12:15:05;11.90;99.90
26107;DHT22;13866;50.748;12.630;2023-02-15T12:17:33;12.00;99.90
26107;DHT22;13866;50.748;12.630;2023-02-15T12:20:18;12.00;99.90
26107;DHT22;13866;50.748;12.630;2023-02-15T12:22:49;12.20;99.90
26107;DHT22;13866;50.748;12.630;2023-02-15T12:25:26;12.30;99.90
26107;DHT22;13866;50.748;12.630;2023-02-15T12:27:55;12.50;99.90
26107;DHT22;13866;50.748;12.630;2023-02-15T12:30:34;12.60;99.90
26107;DHT22;13866;50.748;12.630;2023-02-15T12:33:27;12.80;99.90
26107;DHT22;13866;50.748;12.630;2023-02-15T12:36:25;12.70;99.90
26107;DHT22;13866;50.748;12.630;2023-02-15T12:41:38;12.70;99.90
26107;DHT22;13866;50.748;12.630;2023-02-15T12:44:26;12.50;99.90
26107;DHT22;13866;50.748;12.630;2023-02-15T12:46:59;12.20;99.90
26107;DHT22;13866;50.748;12.630;2023-02-15T12:49:24;12.10;99.90
26107;DHT22;13866;50.748;12.630;2023-02-15T12:51:53;12.20;99.90
26107;DHT22;13866;50.748;12.630;2023-02-15T12:54:25;12.40;99.90
26107;DHT22;13866;50.748;12.630;2023-02-15T12:56:53;12.60;99.90
26107;DHT22;13866;50.748;12.630;2023-02-15T12:59:19;12.30;99.90
26107;DHT22;13866;50.748;12.630;2023-02-15T13:01:46;12.50;99.90
26107;DHT22;13866;50.748;12.630;2023-02-15T13:04:25;12.40;99.90
26107;DHT22;13866;50.748;12.630;2023-02-15T13:06:53;12.50;99.90
26107;DHT22;13866;50.748;12.630;2023-02-15T13:12:16;12.60;99.90
26107;DHT22;13866;50.748;12.630;2023-02-15T13:14:48;12.40;99.90
26107;DHT22;13866;50.748;12.630;2023-02-15T13:17:17;12.40;99.90
26107;DHT22;13866;50.748;12.630;2023-02-15T13:19:50;12.40;99.90
26107;DHT22;13866;50.748;12.630;2023-02-15T13:22:20;12.30;99.90
26107;DHT22;13866;50.748;12.630;2023-02-15T13:24:51;12.30;99.90
26107;DHT22;13866;50.748;12.630;2023-02-15T13:27:23;12.30;99.90
26107;DHT22;13866;50.748;12.630;2023-02-15T13:29:52;12.40;99.90
26107;DHT22;13866;50.748;12.630;2023-02-15T13:32:35;12.40;99.90
26107;DHT22;13866;50.748;12.630;2023-02-15T13:35:03;12.50;99.90
26107;DHT22;13866;50.748;12.630;2023-02-15T13:38:16;12.50;99.90
26107;DHT22;13866;50.748;12.630;2023-02-15T13:40:55;12.70;99.90
26107;DHT22;13866;50.748;12.630;2023-02-15T13:43:36;12.60;99.90
26107;DHT22;13866;50.748;12.630;2023-02-15T13:52:02;12.40;99.90
26107;DHT22;13866;50.748;12.630;2023-02-15T13:54:58;12.30;99.90
26107;DHT22;13866;50.748;12.630;2023-02-15T13:57:44;12.20;99.90
26107;DHT22;13866;50.748;12.630;2023-02-15T14:06:14;12.00;99.90
26107;DHT22;13866;50.748;12.630;2023-02-15T14:08:57;12.10;99.90
26107;DHT22;13866;50.748;12.630;2023-02-15T14:14:45;11.90;99.90
26107;DHT22;13866;50.748;12.630;2023-02-15T14:17:41;11.80;99.90
26107;DHT22;13866;50.748;12.630;2023-02-15T14:20:34;11.70;99.90
26107;DHT22;13866;50.748;12.630;2023-02-15T14:23:21;11.50;99.90
26107;DHT22;13866;50.748;12.630;2023-02-15T14:26:00;11.50;99.90
26107;DHT22;13866;50.748;12.630;2023-02-15T14:28:34;11.40;99.90
26107;DHT22;13866;50.748;12.630;2023-02-15T14:31:04;11.30;99.90
26107;DHT22;13866;50.748;12.630;2023-02-15T14:33:37;11.20;99.90
26107;DHT22;13866;50.748;12.630;2023-02-15T14:36:06;11.00;99.90
26107;DHT22;13866;50.748;12.630;2023-02-15T14:49:16;10.70;99.90
26107;DHT22;13866;50.748;12.630;2023-02-15T15:05:32;10.60;99.90
26107;DHT22;13866;50.748;12.630;2023-02-15T15:08:00;10.60;99.90
26107;DHT22;13866;50.748;12.630;2023-02-15T15:10:33;10.50;99.90
26107;DHT22;13866;50.748;12.630;2023-02-15T15:19:00;10.50;99.90
26107;DHT22;13866;50.748;12.630;2023-02-15T15:38:53;10.10;99.90
26107;DHT22;13866;50.748;12.630;2023-02-15T15:41:48;10.00;99.90
26107;DHT22;13866;50.748;12.630;2023-02-15T15:47:37;9.80;99.90
26107;DHT22;13866;50.748;12.630;2023-02-15T15:50:17;9.70;99.90
26107;DHT22;13866;50.748;12.630;2023-02-15T15:52:47;9.60;99.90
26107;DHT22;13866;50.748;12.630;2023-02-15T15:55:20;9.50;99.90
26107;DHT22;13866;50.748;12.630;2023-02-15T15:57:50;9.40;99.90
26107;DHT22;13866;50.748;12.630;2023-02-15T16:03:26;9.30;99.90
26107;DHT22;13866;50.748;12.630;2023-02-15T16:05:53;9.20;99.90
26107;DHT22;13866;50.748;12.630;2023-02-15T16:08:30;9.10;99.90
26107;DHT22;13866;50.748;12.630;2023-02-15T16:10:56;9.20;99.90
26107;DHT22;13866;50.748;12.630;2023-02-15T16:13:22;9.10;99.90
26107;DHT22;13866;50.748;12.630;2023-02-15T16:15:50;9.00;99.90
26107;DHT22;13866;50.748;12.630;2023-02-15T16:18:20;8.90;99.90
26107;DHT22;13866;50.748;12.630;2023-02-15T16:20:54;8.80;99.90
26107;DHT22;13866;50.748;12.630;2023-02-15T16:29:00;8.60;99.90
26107;DHT22;13866;50.748;12.630;2023-02-15T16:31:26;8.50;99.90
26107;DHT22;13866;50.748;12.630;2023-02-15T16:33:55;8.40;99.90
26107;DHT22;13866;50.748;12.630;2023-02-15T16:36:22;8.30;99.90
26107;DHT22;13866;50.748;12.630;2023-02-15T16:39:06;8.30;99.90
26107;DHT22;13866;50.748;12.630;2023-02-15T16:41:32;8.20;99.90
26107;DHT22;13866;50.748;12.630;2023-02-15T16:44:15;8.10;99.90
26107;DHT22;13866;50.748;12.630;2023-02-15T16:46:45;8.00;99.90
26107;DHT22;13866;50.748;12.630;2023-02-15T16:49:20;7.90;99.90
26107;DHT22;13866;50.748;12.630;2023-02-15T16:51:59;7.90;99.90
26107;DHT22;13866;50.748;12.630;2023-02-15T16:54:26;7.80;99.90
26107;DHT22;13866;50.748;12.630;2023-02-15T16:56:52;7.70;99.90
26107;DHT22;13866;50.748;12.630;2023-02-15T16:59:40;7.70;99.90
26107;DHT22;13866;50.748;12.630;2023-02-15T17:02:25;7.60;99.90
26107;DHT22;13866;50.748;12.630;2023-02-15T17:07:41;7.60;99.90
26107;DHT22;13866;50.748;12.630;2023-02-15T17:10:32;7.50;99.90
26107;DHT22;13866;50.748;12.630;2023-02-15T17:13:12;7.50;99.90
26107;DHT22;13866;50.748;12.630;2023-02-15T17:15:40;7.60;99.90
26107;DHT22;13866;50.748;12.630;2023-02-15T17:18:16;7.50;99.90
26107;DHT22;13866;50.748;12.630;2023-02-15T17:20:44;7.50;99.90
26107;DHT22;13866;50.748;12.630;2023-02-15T17:23:32;7.50;99.90
26107;DHT22;13866;50.748;12.630;2023-02-15T17:26:01;7.50;99.90
26107;DHT22;13866;50.748;12.630;2023-02-15T17:28:30;7.40;99.90
26107;DHT22;13866;50.748;12.630;2023-02-15T17:30:57;7.30;99.90
26107;DHT22;13866;50.748;12.630;2023-02-15T17:33:37;7.30;99.90
26107;DHT22;13866;50.748;12.630;2023-02-15T17:38:38;7.20;99.90
26107;DHT22;13866;50.748;12.630;2023-02-15T17:41:04;7.20;99.90
26107;DHT22;13866;50.748;12.630;2023-02-15T17:43:29;7.10;99.90
26107;DHT22;13866;50.748;12.630;2023-02-15T17:45:56;7.10;99.90
26107;DHT22;13866;50.748;12.630;2023-02-15T17:48:31;7.00;99.90
26107;DHT22;13866;50.748;12.630;2023-02-15T17:50:59;6.90;99.90
26107;DHT22;13866;50.748;12.630;2023-02-15T17:53:25;6.80;99.90
26107;DHT22;13866;50.748;12.630;2023-02-15T17:55:51;6.80;99.90
26107;DHT22;13866;50.748;12.630;2023-02-15T17:58:18;6.70;99.90
26107;DHT22;13866;50.748;12.630;2023-02-15T18:00:52;6.60;99.90
26107;DHT22;13866;50.748;12.630;2023-02-15T18:03:42;6.50;99.90
26107;DHT22;13866;50.748;12.630;2023-02-15T18:06:27;6.40;99.90
26107;DHT22;13866;50.748;12.630;2023-02-15T18:09:13;6.40;99.90
26107;DHT22;13866;50.748;12.630;2023-02-15T18:11:57;6.40;99.90
26107;DHT22;13866;50.748;12.630;2023-02-15T18:14:23;6.30;99.90
26107;DHT22;13866;50.748;12.630;2023-02-15T18:16:48;6.20;99.90
26107;DHT22;13866;50.748;12.630;2023-02-15T18:19:22;6.30;99.90
26107;DHT22;13866;50.748;12.630;2023-02-15T18:21:48;6.30;99.90